Tryon, North Carolina
Current Conditions -  °F | °C
As of 1:15 AM on Sunday 21 Dec 2014 (Local Time) from KGSP Reporting Station
Overcast Overcast  
Wind Chill: 40°   Ceiling: 1600
Heat Index: 43°   Visibility: 7mi
Dew Point: 39°   Wind: 5mph
Humidity: 86%   Direction: 30°NNE
Pressure: 30.22"   Gusts: NA
Location:  35.21°N, 82.24°W
Report Text: KGSP 210615Z AUTO 03004KT 7SM OVC016 06/04 A3022 RMK AO2 T00610039
Loading
Personal Weather Stations






























Interactive Weather Map New forecast layout! Learn more

10-Day Weather Forecast

Advertisements
Track Severe Weather on mobile